createdAt,value
2018-05-09T00:00:35.724Z,5.50
2018-05-09T00:03:03.307Z,5.23
2018-05-09T00:08:24.476Z,4.83
2018-05-09T00:10:52.102Z,4.70
2018-05-09T00:13:19.696Z,5.20
2018-05-09T00:15:47.287Z,5.33
2018-05-09T00:18:14.899Z,5.40
2018-05-09T00:20:42.488Z,5.00
2018-05-09T00:23:10.100Z,4.77
2018-05-09T00:25:37.695Z,5.33
2018-05-09T00:28:05.287Z,5.37
2018-05-09T00:30:32.898Z,5.03
2018-05-09T00:33:00.518Z,5.93
2018-05-09T00:35:28.152Z,4.70
2018-05-09T00:37:55.739Z,5.60
2018-05-09T00:40:23.337Z,5.80
2018-05-09T00:42:51.023Z,5.83
2018-05-09T00:45:18.651Z,5.20
2018-05-09T00:47:46.276Z,5.53
2018-05-09T00:50:13.919Z,6.10
2018-05-09T00:52:41.493Z,5.90
2018-05-09T00:55:09.117Z,5.70
2018-05-09T00:57:36.708Z,6.17
2018-05-09T01:00:04.333Z,5.93
2018-05-09T01:02:31.928Z,5.90
2018-05-09T01:04:59.519Z,5.70
2018-05-09T01:07:28.823Z,5.17
2018-05-09T01:09:57.179Z,5.27
2018-05-09T01:12:24.794Z,5.57
2018-05-09T01:14:52.385Z,5.00
2018-05-09T01:17:19.975Z,5.43
2018-05-09T01:19:48.357Z,5.47
2018-05-09T01:22:16.707Z,5.53
2018-05-09T01:24:44.324Z,5.97
2018-05-09T01:27:11.919Z,5.60
2018-05-09T01:29:39.508Z,4.87
2018-05-09T01:32:07.900Z,5.77
2018-05-09T01:34:37.696Z,5.50
2018-05-09T01:37:06.081Z,6.03
2018-05-09T01:39:34.438Z,5.27
2018-05-09T01:42:02.032Z,5.17
2018-05-09T01:44:30.438Z,7.20
2018-05-09T01:46:58.028Z,5.87
2018-05-09T01:49:25.645Z,5.87
2018-05-09T01:51:53.253Z,5.63
2018-05-09T01:54:20.890Z,5.00
2018-05-09T01:56:54.553Z,6.03
2018-05-09T01:59:22.937Z,6.30
2018-05-09T02:01:50.529Z,6.10
2018-05-09T02:04:18.125Z,6.20
2018-05-09T02:06:45.739Z,6.10
2018-05-09T02:09:13.324Z,5.87
2018-05-09T02:11:40.948Z,5.97
2018-05-09T02:14:08.533Z,5.83
2018-05-09T02:16:46.538Z,5.73
2018-05-09T02:19:14.126Z,5.87
2018-05-09T02:21:41.722Z,5.87
2018-05-09T02:24:09.361Z,6.37
2018-05-09T02:26:37.716Z,6.70
2018-05-09T02:29:05.335Z,6.50
2018-05-09T02:31:32.938Z,5.80
2018-05-09T02:34:00.561Z,5.90
2018-05-09T02:36:28.161Z,6.07
2018-05-09T02:38:55.753Z,6.17
2018-05-09T02:41:24.140Z,6.77
2018-05-09T02:43:51.736Z,6.77
2018-05-09T02:46:19.357Z,6.27
2018-05-09T02:49:04.393Z,7.10
2018-05-09T02:51:32.018Z,7.37
2018-05-09T02:53:59.608Z,6.77
2018-05-09T02:56:27.192Z,6.97
2018-05-09T02:58:55.572Z,6.00
2018-05-09T03:01:23.933Z,6.27
2018-05-09T03:03:51.552Z,6.20
2018-05-09T03:06:19.148Z,6.30
2018-05-09T03:08:46.755Z,6.83
2018-05-09T03:11:14.422Z,6.27
2018-05-09T03:13:42.016Z,6.70
2018-05-09T03:16:09.632Z,6.90
2018-05-09T03:18:37.228Z,6.70
2018-05-09T03:21:04.819Z,7.00
2018-05-09T03:23:32.448Z,7.03
2018-05-09T03:26:00.044Z,7.13
2018-05-09T03:28:30.794Z,7.80
2018-05-09T03:30:59.169Z,7.40
2018-05-09T03:33:27.548Z,6.87
2018-05-09T03:35:55.904Z,6.47
2018-05-09T03:38:23.495Z,7.00
2018-05-09T03:40:51.896Z,7.00
2018-05-09T03:43:19.578Z,7.30
2018-05-09T03:45:47.393Z,7.00
2018-05-09T03:48:15.012Z,7.40
2018-05-09T03:50:42.635Z,8.10
2018-05-09T03:53:10.239Z,6.50
2018-05-09T03:55:37.852Z,7.20
2018-05-09T03:58:05.470Z,7.53
2018-05-09T04:00:33.060Z,7.50
2018-05-09T04:03:13.285Z,7.50
2018-05-09T04:05:52.671Z,7.10
2018-05-09T04:08:32.124Z,7.00
2018-05-09T04:10:59.720Z,6.47
2018-05-09T04:13:27.336Z,6.90
2018-05-09T04:15:54.940Z,7.00
2018-05-09T04:18:22.551Z,7.17
2018-05-09T04:20:50.216Z,7.03
2018-05-09T04:23:18.553Z,7.40
2018-05-09T04:25:46.144Z,7.50
2018-05-09T04:28:13.803Z,6.83
2018-05-09T04:30:41.401Z,7.40
2018-05-09T04:33:08.996Z,7.67
2018-05-09T04:35:36.614Z,8.03
2018-05-09T04:40:57.715Z,7.90
2018-05-09T04:43:27.283Z,7.30
2018-05-09T04:45:54.884Z,8.03
2018-05-09T04:48:22.509Z,7.60
2018-05-09T04:51:04.100Z,8.03
2018-05-09T04:53:31.722Z,7.90
2018-05-09T04:55:59.322Z,8.17
2018-05-09T04:58:26.916Z,8.30
2018-05-09T05:00:54.541Z,7.27
2018-05-09T05:03:22.136Z,8.00
2018-05-09T05:05:49.751Z,8.93
2018-05-09T05:08:17.349Z,8.83
2018-05-09T05:10:44.953Z,8.50
2018-05-09T05:13:12.576Z,9.00
2018-05-09T05:15:40.237Z,8.97
2018-05-09T05:18:07.836Z,9.80
2018-05-09T05:20:35.433Z,9.60
2018-05-09T05:23:03.028Z,8.60
2018-05-09T05:25:30.644Z,9.37
2018-05-09T05:27:58.248Z,9.70
2018-05-09T05:30:32.172Z,8.83
2018-05-09T05:32:59.776Z,9.73
2018-05-09T05:35:27.382Z,10.23
2018-05-09T05:37:55.016Z,9.80
2018-05-09T05:40:23.375Z,9.60
2018-05-09T05:42:51.000Z,9.50
2018-05-09T05:45:18.675Z,10.00
2018-05-09T05:47:46.260Z,11.77
2018-05-09T05:50:13.890Z,11.50
2018-05-09T05:52:41.497Z,11.57
2018-05-09T05:55:09.908Z,11.20
2018-05-09T05:57:37.512Z,11.23
2018-05-09T06:00:05.148Z,9.70
2018-05-09T06:02:32.767Z,9.00
2018-05-09T06:05:01.128Z,9.60
2018-05-09T06:07:29.521Z,8.70
2018-05-09T06:09:57.887Z,9.20
2018-05-09T06:12:26.264Z,8.57
2018-05-09T06:14:54.664Z,9.17
2018-05-09T06:17:22.286Z,9.03
2018-05-09T06:19:49.908Z,8.80
2018-05-09T06:22:17.500Z,9.37
2018-05-09T06:24:45.100Z,9.13
2018-05-09T06:27:13.493Z,8.40
2018-05-09T06:29:41.087Z,9.40
2018-05-09T06:32:08.722Z,8.37
2018-05-09T06:34:36.330Z,8.40
2018-05-09T06:37:03.921Z,8.90
2018-05-09T06:39:31.549Z,8.47
2018-05-09T06:41:59.148Z,7.23
2018-05-09T06:44:26.769Z,7.53
2018-05-09T06:46:54.372Z,8.37
2018-05-09T06:49:21.977Z,8.50
2018-05-09T06:51:49.592Z,7.93
2018-05-09T06:54:17.189Z,8.17
2018-05-09T06:56:44.804Z,6.70
2018-05-09T06:59:13.161Z,6.33
2018-05-09T07:01:41.702Z,6.77
2018-05-09T07:04:09.320Z,7.10
2018-05-09T07:06:37.816Z,6.67
2018-05-09T07:09:05.330Z,6.27
2018-05-09T07:11:32.933Z,5.80
2018-05-09T07:14:00.524Z,5.67
2018-05-09T07:16:28.140Z,6.13
2018-05-09T07:18:56.496Z,5.63
2018-05-09T07:21:24.116Z,5.27
2018-05-09T07:23:51.715Z,5.70
2018-05-09T07:26:19.317Z,5.30
2018-05-09T07:28:46.929Z,5.33
2018-05-09T07:31:14.521Z,5.33
2018-05-09T07:33:42.905Z,5.70
2018-05-09T07:36:10.504Z,5.50
2018-05-09T07:38:38.095Z,5.97
2018-05-09T07:41:05.717Z,6.37
2018-05-09T07:43:33.313Z,6.53
2018-05-09T07:46:00.933Z,6.30
2018-05-09T07:48:28.526Z,6.10
2018-05-09T07:50:56.884Z,6.13
2018-05-09T07:53:24.504Z,6.07
2018-05-09T07:55:52.906Z,6.27
2018-05-09T07:58:20.528Z,6.37
2018-05-09T08:00:48.907Z,6.37
2018-05-09T08:03:17.270Z,6.70
2018-05-09T08:05:44.887Z,6.53
2018-05-09T08:08:12.489Z,6.70
2018-05-09T08:10:40.109Z,7.03
2018-05-09T08:13:07.713Z,5.80
2018-05-09T08:15:35.314Z,6.37
2018-05-09T08:18:02.953Z,6.57
2018-05-09T08:20:31.334Z,7.30
2018-05-09T08:22:59.751Z,6.60
2018-05-09T08:25:27.352Z,6.67
2018-05-09T08:27:54.968Z,6.47
2018-05-09T08:30:22.606Z,6.30
2018-05-09T08:32:50.247Z,6.43
2018-05-09T08:35:18.653Z,6.33
2018-05-09T08:37:46.253Z,6.57
2018-05-09T08:40:13.852Z,7.07
2018-05-09T08:42:42.231Z,6.37
2018-05-09T08:45:10.591Z,6.83
2018-05-09T08:47:38.211Z,6.83
2018-05-09T08:50:05.803Z,6.17
2018-05-09T08:52:37.065Z,6.10
2018-05-09T08:55:04.682Z,6.30
2018-05-09T08:57:32.279Z,6.93
2018-05-09T08:59:59.897Z,6.30
2018-05-09T09:02:27.491Z,6.80
2018-05-09T09:04:55.104Z,8.03
2018-05-09T09:07:22.724Z,6.47
2018-05-09T09:09:50.313Z,8.20
2018-05-09T09:12:18.698Z,8.37
2018-05-09T09:14:46.295Z,8.90
2018-05-09T09:17:13.893Z,9.37
2018-05-09T09:19:42.297Z,9.27
2018-05-09T09:22:09.900Z,9.13
2018-05-09T09:24:37.538Z,14.10
2018-05-09T09:27:05.951Z,13.50
2018-05-09T09:29:33.901Z,17.70
2018-05-09T09:32:01.542Z,16.40
2018-05-09T09:34:29.184Z,16.70
2018-05-09T09:36:57.575Z,19.40
2018-05-09T09:39:25.186Z,21.80
2018-05-09T09:41:52.802Z,18.73
2018-05-09T09:44:20.429Z,17.70
2018-05-09T09:46:48.790Z,16.80
2018-05-09T09:49:16.432Z,14.30
2018-05-09T09:51:44.035Z,14.87
2018-05-09T09:54:12.405Z,13.50
2018-05-09T09:56:40.803Z,12.83
2018-05-09T09:59:08.434Z,7.80
2018-05-09T10:01:36.148Z,8.10
2018-05-09T10:04:03.693Z,8.00
2018-05-09T10:06:31.290Z,8.53
2018-05-09T10:08:58.906Z,7.67
2018-05-09T10:11:26.494Z,7.20
2018-05-09T10:13:54.121Z,8.47
2018-05-09T10:16:22.578Z,7.57
2018-05-09T10:21:44.437Z,8.17
2018-05-09T10:24:12.849Z,7.37
2018-05-09T10:26:40.472Z,6.90
2018-05-09T10:29:08.837Z,6.70
2018-05-09T10:31:36.496Z,5.73
2018-05-09T10:34:04.293Z,6.73
2018-05-09T10:36:31.936Z,6.80
2018-05-09T10:38:59.601Z,5.87
2018-05-09T10:41:27.955Z,6.33
2018-05-09T10:43:55.803Z,6.37
2018-05-09T10:46:23.413Z,6.87
2018-05-09T10:48:51.813Z,6.67
2018-05-09T10:51:19.400Z,6.57
2018-05-09T10:53:47.010Z,6.60
2018-05-09T10:56:15.404Z,6.73
2018-05-09T10:58:43.013Z,6.90
2018-05-09T11:01:10.641Z,7.13
2018-05-09T11:03:38.248Z,7.00
2018-05-09T11:06:05.844Z,6.60
2018-05-09T11:08:34.057Z,6.60
2018-05-09T11:11:19.661Z,7.00
2018-05-09T11:13:47.300Z,7.23
2018-05-09T11:16:14.923Z,7.77
2018-05-09T11:18:42.527Z,6.60
2018-05-09T11:21:10.221Z,7.03
2018-05-09T11:23:38.617Z,7.20
2018-05-09T11:26:13.843Z,7.60
2018-05-09T11:28:41.589Z,7.57
2018-05-09T11:31:09.203Z,7.60
2018-05-09T11:33:36.834Z,7.60
2018-05-09T11:36:05.202Z,8.80
2018-05-09T11:38:33.655Z,8.40
2018-05-09T11:41:01.251Z,7.73
2018-05-09T11:43:29.627Z,8.80
2018-05-09T11:45:58.017Z,9.00
2018-05-09T11:48:26.443Z,8.33
2018-05-09T11:50:54.095Z,8.90
2018-05-09T11:53:21.680Z,8.60
2018-05-09T11:55:49.333Z,7.73
2018-05-09T11:58:16.995Z,7.97
2018-05-09T12:00:44.892Z,8.37
2018-05-09T12:03:12.881Z,8.40
2018-05-09T12:05:40.726Z,8.77
2018-05-09T12:08:09.127Z,8.43
2018-05-09T12:10:37.594Z,8.20
2018-05-09T12:13:05.128Z,8.63
2018-05-09T12:15:32.752Z,8.70
2018-05-09T12:18:00.386Z,8.87
2018-05-09T12:20:28.752Z,8.70
2018-05-09T12:23:00.135Z,10.90
2018-05-09T12:25:27.785Z,9.40
2018-05-09T12:27:55.425Z,9.20
2018-05-09T12:30:23.827Z,8.90
2018-05-09T12:32:51.421Z,8.50
2018-05-09T12:35:19.029Z,8.67
2018-05-09T12:38:04.014Z,9.43
2018-05-09T12:40:31.650Z,9.17
2018-05-09T12:42:59.233Z,8.70
2018-05-09T12:45:27.588Z,8.97
2018-05-09T12:47:55.217Z,8.70
2018-05-09T12:50:22.822Z,9.00
2018-05-09T12:52:51.248Z,9.67
2018-05-09T12:55:18.841Z,9.50
2018-05-09T12:57:47.940Z,9.27
2018-05-09T13:00:15.559Z,8.73
2018-05-09T13:02:43.168Z,8.57
2018-05-09T13:05:11.597Z,8.27
2018-05-09T13:07:39.190Z,8.43
2018-05-09T13:10:06.799Z,9.20
2018-05-09T13:12:34.409Z,8.90
2018-05-09T13:15:02.006Z,8.97
2018-05-09T13:17:30.529Z,8.30
2018-05-09T13:19:58.161Z,8.80
2018-05-09T13:22:26.667Z,9.23
2018-05-09T13:24:54.376Z,9.10
2018-05-09T13:27:25.200Z,8.70
2018-05-09T13:29:52.836Z,9.40
2018-05-09T13:32:20.431Z,8.67
2018-05-09T13:34:48.058Z,9.40
2018-05-09T13:37:15.674Z,10.17
2018-05-09T13:39:44.047Z,8.50
2018-05-09T13:42:12.435Z,9.20
2018-05-09T13:44:40.067Z,8.10
2018-05-09T13:47:07.677Z,9.20
2018-05-09T13:49:35.293Z,9.30
2018-05-09T13:52:03.664Z,9.47
2018-05-09T13:54:31.286Z,9.20
2018-05-09T13:56:58.869Z,8.33
2018-05-09T13:59:26.453Z,9.30
2018-05-09T14:01:54.843Z,8.10
2018-05-09T14:04:22.458Z,8.70
2018-05-09T14:06:50.068Z,8.03
2018-05-09T14:09:18.440Z,7.70
2018-05-09T14:11:46.805Z,9.10
2018-05-09T14:14:14.419Z,8.07
2018-05-09T14:16:42.013Z,7.93
2018-05-09T14:19:09.645Z,8.13
2018-05-09T14:21:37.244Z,8.57
2018-05-09T14:24:04.842Z,8.60
2018-05-09T14:26:32.451Z,7.87
2018-05-09T14:29:00.045Z,7.93
2018-05-09T14:31:28.429Z,8.30
2018-05-09T14:33:56.032Z,8.50
2018-05-09T14:36:23.636Z,8.47
2018-05-09T14:38:52.036Z,8.13
2018-05-09T14:41:19.628Z,9.10
2018-05-09T14:43:47.249Z,8.57
2018-05-09T14:46:14.844Z,8.40
2018-05-09T14:48:42.432Z,7.77
2018-05-09T14:51:10.060Z,9.03
2018-05-09T14:53:37.656Z,7.60
2018-05-09T14:56:05.286Z,8.70
2018-05-09T14:58:32.875Z,8.13
2018-05-09T15:01:00.461Z,7.90
2018-05-09T15:03:28.848Z,7.83
2018-05-09T15:05:57.216Z,8.57
2018-05-09T15:08:25.602Z,8.43
2018-05-09T15:10:53.963Z,7.60
2018-05-09T15:13:24.499Z,7.80
2018-05-09T15:15:52.884Z,6.73
2018-05-09T15:18:21.236Z,7.43
2018-05-09T15:20:48.854Z,7.70
2018-05-09T15:23:19.584Z,7.00
2018-05-09T15:25:47.185Z,7.30
2018-05-09T15:28:14.803Z,6.40
2018-05-09T15:30:42.427Z,6.47
2018-05-09T15:33:10.057Z,7.20
2018-05-09T15:35:37.649Z,7.40
2018-05-09T15:38:06.039Z,7.50
2018-05-09T15:40:34.413Z,6.70
2018-05-09T15:43:02.808Z,7.23
2018-05-09T15:45:30.406Z,6.60
2018-05-09T15:47:57.999Z,7.00
2018-05-09T15:50:25.622Z,6.90
2018-05-09T15:52:53.217Z,7.27
2018-05-09T15:55:20.837Z,6.10
2018-05-09T15:57:48.440Z,7.23
2018-05-09T16:00:16.045Z,6.67
2018-05-09T16:02:43.665Z,6.30
2018-05-09T16:05:11.251Z,6.80
2018-05-09T16:07:38.878Z,6.80
2018-05-09T16:10:06.473Z,6.43
2018-05-09T16:12:34.065Z,6.57
2018-05-09T16:15:01.688Z,5.97
2018-05-09T16:17:30.067Z,5.57
2018-05-09T16:19:58.451Z,6.07
2018-05-09T16:22:26.052Z,5.80
2018-05-09T16:24:53.644Z,5.60
2018-05-09T16:27:22.035Z,6.20
2018-05-09T16:29:50.386Z,5.97
2018-05-09T16:32:18.009Z,6.00
2018-05-09T16:34:45.599Z,6.33
2018-05-09T16:37:13.194Z,5.93
2018-05-09T16:39:41.582Z,5.60
2018-05-09T16:42:15.609Z,5.40
2018-05-09T16:44:43.225Z,5.83
2018-05-09T16:47:10.817Z,5.70
2018-05-09T16:49:39.176Z,5.67
2018-05-09T16:52:07.548Z,6.00
2018-05-09T16:54:35.148Z,5.77
2018-05-09T16:57:02.761Z,6.17
2018-05-09T16:59:30.355Z,5.60
2018-05-09T17:01:57.948Z,5.50
2018-05-09T17:04:25.572Z,5.43
2018-05-09T17:06:53.921Z,5.57
2018-05-09T17:12:15.035Z,5.67
2018-05-09T17:14:42.917Z,6.47
2018-05-09T17:17:11.307Z,5.27
2018-05-09T17:19:39.675Z,5.40
2018-05-09T17:22:24.976Z,5.73
2018-05-09T17:24:53.399Z,5.53
2018-05-09T17:27:20.983Z,5.50
2018-05-09T17:29:48.568Z,5.00
2018-05-09T17:32:16.927Z,5.10
2018-05-09T17:34:44.545Z,5.00
2018-05-09T17:37:12.141Z,5.07
2018-05-09T17:39:39.760Z,5.20
2018-05-09T17:42:07.361Z,5.47
2018-05-09T17:44:34.959Z,5.20
2018-05-09T17:47:02.724Z,5.70
2018-05-09T17:49:30.319Z,5.80
2018-05-09T17:51:57.951Z,5.53
2018-05-09T17:54:25.589Z,4.90
2018-05-09T17:56:53.169Z,5.27
2018-05-09T17:59:20.792Z,5.20
2018-05-09T18:01:48.394Z,5.20
2018-05-09T18:04:16.009Z,5.53
2018-05-09T18:06:43.684Z,4.83
2018-05-09T18:09:11.224Z,5.30
2018-05-09T18:11:38.851Z,5.60
2018-05-09T18:14:06.433Z,5.23
2018-05-09T18:16:34.048Z,4.90
2018-05-09T18:19:02.035Z,5.87
2018-05-09T18:21:29.652Z,4.90
2018-05-09T18:23:57.281Z,5.37
2018-05-09T18:26:24.885Z,4.70
2018-05-09T18:28:53.287Z,4.80
2018-05-09T18:31:21.127Z,4.90
2018-05-09T18:33:49.488Z,5.00
2018-05-09T18:36:17.105Z,5.40
2018-05-09T18:38:44.712Z,5.03
2018-05-09T18:41:12.580Z,4.43
2018-05-09T18:43:40.828Z,4.90
2018-05-09T18:46:08.845Z,5.07
2018-05-09T18:48:37.244Z,8.10
2018-05-09T18:51:04.843Z,9.03
2018-05-09T18:53:32.468Z,9.53
2018-05-09T18:56:00.061Z,8.50
2018-05-09T18:58:27.655Z,8.17
2018-05-09T19:00:55.292Z,7.80
2018-05-09T19:03:24.814Z,7.10
2018-05-09T19:05:52.510Z,8.20
2018-05-09T19:08:20.139Z,6.90
2018-05-09T19:10:48.097Z,10.03
2018-05-09T19:13:15.729Z,8.53
2018-05-09T19:15:43.334Z,9.37
2018-05-09T19:18:11.790Z,9.07
2018-05-09T19:20:39.449Z,8.77
2018-05-09T19:23:07.070Z,9.53
2018-05-09T19:25:35.588Z,10.30
2018-05-09T19:28:03.240Z,9.00
2018-05-09T19:30:30.831Z,8.37
2018-05-09T19:32:58.445Z,9.10
2018-05-09T19:35:26.060Z,8.60
2018-05-09T19:37:54.441Z,8.15
2018-05-09T19:40:42.394Z,8.53
2018-05-09T19:43:10.740Z,7.90
2018-05-09T19:45:44.562Z,8.00
2018-05-09T19:48:12.930Z,8.53
2018-05-09T19:50:40.521Z,8.13
2018-05-09T19:53:10.125Z,7.87
2018-05-09T19:55:38.500Z,7.97
2018-05-09T19:58:06.884Z,7.70
2018-05-09T20:00:34.479Z,8.00
2018-05-09T20:03:09.272Z,8.37
2018-05-09T20:05:37.628Z,8.37
2018-05-09T20:08:11.623Z,8.90
2018-05-09T20:10:39.280Z,9.40
2018-05-09T20:13:06.877Z,8.10
2018-05-09T20:15:43.004Z,7.70
2018-05-09T20:18:20.778Z,9.30
2018-05-09T20:20:48.409Z,8.50
2018-05-09T20:23:26.232Z,8.67
2018-05-09T20:25:53.878Z,9.40
2018-05-09T20:28:21.589Z,9.47
2018-05-09T20:30:54.802Z,10.00
2018-05-09T20:36:17.193Z,6.73
2018-05-09T20:38:44.793Z,6.67
2018-05-09T20:41:31.196Z,8.30
2018-05-09T20:44:02.976Z,7.83
2018-05-09T20:46:32.266Z,7.50
2018-05-09T20:48:59.913Z,7.33
2018-05-09T20:51:45.546Z,7.80
2018-05-09T20:54:21.193Z,10.00
2018-05-09T20:56:49.569Z,10.80
2018-05-09T20:59:17.206Z,10.53
2018-05-09T21:01:47.447Z,11.53
2018-05-09T21:04:15.109Z,12.60
2018-05-09T21:06:43.485Z,12.10
2018-05-09T21:09:11.938Z,10.80
2018-05-09T21:11:39.629Z,10.60
2018-05-09T21:14:07.986Z,9.53
2018-05-09T21:16:36.383Z,10.80
2018-05-09T21:19:04.752Z,10.63
2018-05-09T21:21:33.138Z,11.73
2018-05-09T21:24:01.534Z,12.70
2018-05-09T21:26:29.149Z,12.67
2018-05-09T21:28:56.773Z,12.97
2018-05-09T21:31:24.412Z,13.60
2018-05-09T21:33:52.016Z,12.00
2018-05-09T21:36:19.642Z,12.90
2018-05-09T21:38:47.266Z,12.90
2018-05-09T21:41:14.865Z,13.40
2018-05-09T21:43:42.490Z,13.43
2018-05-09T21:46:10.110Z,13.40
2018-05-09T21:48:37.756Z,14.90
2018-05-09T21:51:05.370Z,15.10
2018-05-09T21:53:32.974Z,11.80
2018-05-09T21:56:00.630Z,12.43
2018-05-09T21:58:47.958Z,9.40
2018-05-09T22:01:15.598Z,12.43
2018-05-09T22:03:43.204Z,12.07
2018-05-09T22:06:10.800Z,12.80
2018-05-09T22:08:56.353Z,13.50
2018-05-09T22:11:24.864Z,13.33
2018-05-09T22:13:53.265Z,13.50
2018-05-09T22:16:20.857Z,15.13
2018-05-09T22:18:48.524Z,15.10
2018-05-09T22:21:16.872Z,14.67
2018-05-09T22:23:44.469Z,13.10
2018-05-09T22:26:12.105Z,13.43
2018-05-09T22:28:39.700Z,11.67
2018-05-09T22:31:07.308Z,14.00
2018-05-09T22:33:34.931Z,14.07
2018-05-09T22:36:02.536Z,14.80
2018-05-09T22:38:30.165Z,13.20
2018-05-09T22:40:57.764Z,14.70
2018-05-09T22:43:25.364Z,14.03
2018-05-09T22:45:52.988Z,14.50
2018-05-09T22:48:20.621Z,14.73
2018-05-09T22:50:48.265Z,13.70
2018-05-09T22:53:15.860Z,14.40
2018-05-09T22:55:43.450Z,15.50
2018-05-09T22:58:11.070Z,15.80
2018-05-09T23:00:38.668Z,15.70
2018-05-09T23:03:06.294Z,14.50
2018-05-09T23:05:33.902Z,15.93
2018-05-09T23:08:01.508Z,15.90
2018-05-09T23:10:29.908Z,16.70
2018-05-09T23:12:57.496Z,15.60
2018-05-09T23:15:25.112Z,14.27
2018-05-09T23:17:52.709Z,14.13
2018-05-09T23:20:20.304Z,15.77
2018-05-09T23:22:47.932Z,16.00
2018-05-09T23:25:15.532Z,14.93
2018-05-09T23:27:43.162Z,14.30
2018-05-09T23:30:10.758Z,15.60
2018-05-09T23:32:39.119Z,16.33
2018-05-09T23:35:06.740Z,15.47
2018-05-09T23:37:38.016Z,16.30
2018-05-09T23:40:05.644Z,16.57
2018-05-09T23:42:33.237Z,15.00
2018-05-09T23:45:00.844Z,12.87
2018-05-09T23:47:28.452Z,15.20
2018-05-09T23:49:56.042Z,14.47
2018-05-09T23:52:23.684Z,14.23
2018-05-09T23:54:51.280Z,15.80
2018-05-09T23:57:19.644Z,14.63
2018-05-09T23:59:48.027Z,15.50
